sensor_id;sensor_type;location;lat;lon;timestamp;temperature;humidity
80220;DHT22;70247;37.958;23.722;2023-08-24T00:00:05;29.00;38.30
80220;DHT22;70247;37.958;23.722;2023-08-24T00:02:31;29.00;36.60
80220;DHT22;70247;37.958;23.722;2023-08-24T00:04:56;29.10;39.90
80220;DHT22;70247;37.958;23.722;2023-08-24T00:07:22;29.20;38.90
80220;DHT22;70247;37.958;23.722;2023-08-24T00:09:47;29.20;39.10
80220;DHT22;70247;37.958;23.722;2023-08-24T00:12:13;29.20;39.80
80220;DHT22;70247;37.958;23.722;2023-08-24T00:14:39;29.30;41.10
80220;DHT22;70247;37.958;23.722;2023-08-24T00:17:04;29.20;40.90
80220;DHT22;70247;37.958;23.722;2023-08-24T00:19:30;29.20;38.10
80220;DHT22;70247;37.958;23.722;2023-08-24T00:21:55;29.20;39.30
80220;DHT22;70247;37.958;23.722;2023-08-24T00:24:21;29.20;41.00
80220;DHT22;70247;37.958;23.722;2023-08-24T00:26:46;29.10;38.40
80220;DHT22;70247;37.958;23.722;2023-08-24T00:29:12;29.10;38.40
80220;DHT22;70247;37.958;23.722;2023-08-24T00:31:37;29.10;38.30
80220;DHT22;70247;37.958;23.722;2023-08-24T00:34:03;29.00;38.50
80220;DHT22;70247;37.958;23.722;2023-08-24T00:36:28;29.10;39.60
80220;DHT22;70247;37.958;23.722;2023-08-24T00:38:54;29.00;37.80
80220;DHT22;70247;37.958;23.722;2023-08-24T00:41:20;29.10;38.40
80220;DHT22;70247;37.958;23.722;2023-08-24T00:43:46;29.00;39.10
80220;DHT22;70247;37.958;23.722;2023-08-24T00:46:12;29.00;37.40
80220;DHT22;70247;37.958;23.722;2023-08-24T00:48:38;29.00;37.90
80220;DHT22;70247;37.958;23.722;2023-08-24T00:51:04;29.00;39.20
80220;DHT22;70247;37.958;23.722;2023-08-24T00:53:30;29.00;40.30
80220;DHT22;70247;37.958;23.722;2023-08-24T00:55:55;29.10;42.60
80220;DHT22;70247;37.958;23.722;2023-08-24T00:58:21;29.00;41.70
80220;DHT22;70247;37.958;23.722;2023-08-24T01:00:50;29.00;41.90
80220;DHT22;70247;37.958;23.722;2023-08-24T01:03:17;29.00;41.70
80220;DHT22;70247;37.958;23.722;2023-08-24T01:05:43;29.00;42.10
80220;DHT22;70247;37.958;23.722;2023-08-24T01:08:09;28.90;40.80
80220;DHT22;70247;37.958;23.722;2023-08-24T01:10:46;28.90;40.50
80220;DHT22;70247;37.958;23.722;2023-08-24T01:13:15;28.80;41.10
80220;DHT22;70247;37.958;23.722;2023-08-24T01:18:11;28.70;39.50
80220;DHT22;70247;37.958;23.722;2023-08-24T01:20:40;28.70;39.00
80220;DHT22;70247;37.958;23.722;2023-08-24T01:25:42;28.70;39.40
80220;DHT22;70247;37.958;23.722;2023-08-24T01:28:11;28.60;38.40
80220;DHT22;70247;37.958;23.722;2023-08-24T01:30:38;28.80;42.50
80220;DHT22;70247;37.958;23.722;2023-08-24T01:33:04;28.80;41.30
80220;DHT22;70247;37.958;23.722;2023-08-24T01:35:30;28.80;43.50
80220;DHT22;70247;37.958;23.722;2023-08-24T01:37:55;28.80;42.50
80220;DHT22;70247;37.958;23.722;2023-08-24T01:40:23;28.70;42.50
80220;DHT22;70247;37.958;23.722;2023-08-24T01:45:17;28.50;39.60
80220;DHT22;70247;37.958;23.722;2023-08-24T01:47:45;28.40;39.60
80220;DHT22;70247;37.958;23.722;2023-08-24T01:50:11;28.40;39.90
80220;DHT22;70247;37.958;23.722;2023-08-24T01:52:36;28.50;41.40
80220;DHT22;70247;37.958;23.722;2023-08-24T01:55:02;28.50;40.30
80220;DHT22;70247;37.958;23.722;2023-08-24T01:57:28;28.50;39.10
80220;DHT22;70247;37.958;23.722;2023-08-24T01:59:54;28.40;38.00
80220;DHT22;70247;37.958;23.722;2023-08-24T02:02:20;28.50;40.00
80220;DHT22;70247;37.958;23.722;2023-08-24T02:04:45;28.60;41.10
80220;DHT22;70247;37.958;23.722;2023-08-24T02:07:11;28.60;40.70
80220;DHT22;70247;37.958;23.722;2023-08-24T02:09:37;28.60;40.50
80220;DHT22;70247;37.958;23.722;2023-08-24T02:12:02;28.60;39.20
80220;DHT22;70247;37.958;23.722;2023-08-24T02:14:28;28.60;40.60
80220;DHT22;70247;37.958;23.722;2023-08-24T02:16:54;28.60;40.10
80220;DHT22;70247;37.958;23.722;2023-08-24T02:19:19;28.70;41.50
80220;DHT22;70247;37.958;23.722;2023-08-24T02:21:45;28.70;40.40
80220;DHT22;70247;37.958;23.722;2023-08-24T02:24:11;28.60;40.70
80220;DHT22;70247;37.958;23.722;2023-08-24T02:26:36;28.60;41.30
80220;DHT22;70247;37.958;23.722;2023-08-24T02:29:02;28.60;40.00
80220;DHT22;70247;37.958;23.722;2023-08-24T02:31:27;28.50;41.90
80220;DHT22;70247;37.958;23.722;2023-08-24T02:33:53;28.50;40.10
80220;DHT22;70247;37.958;23.722;2023-08-24T02:36:19;28.50;38.60
80220;DHT22;70247;37.958;23.722;2023-08-24T02:38:45;28.50;39.90
80220;DHT22;70247;37.958;23.722;2023-08-24T02:41:10;28.50;39.60
80220;DHT22;70247;37.958;23.722;2023-08-24T02:43:36;28.40;39.20
80220;DHT22;70247;37.958;23.722;2023-08-24T02:46:02;28.40;41.90
80220;DHT22;70247;37.958;23.722;2023-08-24T02:48:29;28.50;40.60
80220;DHT22;70247;37.958;23.722;2023-08-24T02:50:54;28.40;39.90
80220;DHT22;70247;37.958;23.722;2023-08-24T02:53:20;28.40;40.40
80220;DHT22;70247;37.958;23.722;2023-08-24T02:55:45;28.40;40.70
80220;DHT22;70247;37.958;23.722;2023-08-24T02:58:11;28.40;39.50
80220;DHT22;70247;37.958;23.722;2023-08-24T03:00:39;28.40;40.40
80220;DHT22;70247;37.958;23.722;2023-08-24T03:03:05;28.40;40.10
80220;DHT22;70247;37.958;23.722;2023-08-24T03:05:31;28.40;42.30
80220;DHT22;70247;37.958;23.722;2023-08-24T03:07:57;28.40;42.10
80220;DHT22;70247;37.958;23.722;2023-08-24T03:10:23;28.30;40.60
80220;DHT22;70247;37.958;23.722;2023-08-24T03:12:49;28.30;40.70
80220;DHT22;70247;37.958;23.722;2023-08-24T03:15:15;28.30;39.70
80220;DHT22;70247;37.958;23.722;2023-08-24T03:17:41;28.20;39.10
80220;DHT22;70247;37.958;23.722;2023-08-24T03:20:06;28.30;40.60
80220;DHT22;70247;37.958;23.722;2023-08-24T03:22:32;28.30;40.50
80220;DHT22;70247;37.958;23.722;2023-08-24T03:24:58;28.30;40.90
80220;DHT22;70247;37.958;23.722;2023-08-24T03:27:23;28.30;41.10
80220;DHT22;70247;37.958;23.722;2023-08-24T03:29:49;28.30;40.30
80220;DHT22;70247;37.958;23.722;2023-08-24T03:32:17;28.30;40.20
80220;DHT22;70247;37.958;23.722;2023-08-24T03:34:42;28.30;40.40
80220;DHT22;70247;37.958;23.722;2023-08-24T03:37:08;28.30;40.50
80220;DHT22;70247;37.958;23.722;2023-08-24T03:39:36;28.30;40.60
80220;DHT22;70247;37.958;23.722;2023-08-24T03:42:02;28.20;40.40
80220;DHT22;70247;37.958;23.722;2023-08-24T03:44:27;28.30;40.30
80220;DHT22;70247;37.958;23.722;2023-08-24T03:46:53;28.20;39.40
80220;DHT22;70247;37.958;23.722;2023-08-24T03:49:18;28.20;39.60
80220;DHT22;70247;37.958;23.722;2023-08-24T03:51:44;28.30;40.20
80220;DHT22;70247;37.958;23.722;2023-08-24T03:54:09;28.30;40.10
80220;DHT22;70247;37.958;23.722;2023-08-24T03:56:35;28.30;38.80
80220;DHT22;70247;37.958;23.722;2023-08-24T03:59:01;28.30;39.00
80220;DHT22;70247;37.958;23.722;2023-08-24T04:01:26;28.20;38.60
80220;DHT22;70247;37.958;23.722;2023-08-24T04:03:52;28.20;40.40
80220;DHT22;70247;37.958;23.722;2023-08-24T04:06:17;28.20;39.80
80220;DHT22;70247;37.958;23.722;2023-08-24T04:08:44;28.20;38.90
80220;DHT22;70247;37.958;23.722;2023-08-24T04:11:10;28.20;39.50
80220;DHT22;70247;37.958;23.722;2023-08-24T04:13:35;28.20;40.30
80220;DHT22;70247;37.958;23.722;2023-08-24T04:16:01;28.30;39.50
80220;DHT22;70247;37.958;23.722;2023-08-24T04:18:29;28.30;38.80
80220;DHT22;70247;37.958;23.722;2023-08-24T04:20:54;28.30;38.80
80220;DHT22;70247;37.958;23.722;2023-08-24T04:23:24;28.30;39.50
80220;DHT22;70247;37.958;23.722;2023-08-24T04:25:50;28.40;39.90
80220;DHT22;70247;37.958;23.722;2023-08-24T04:28:15;28.40;40.10
80220;DHT22;70247;37.958;23.722;2023-08-24T04:30:48;28.40;40.00
80220;DHT22;70247;37.958;23.722;2023-08-24T04:33:14;28.40;40.30
80220;DHT22;70247;37.958;23.722;2023-08-24T04:35:39;28.50;40.70
80220;DHT22;70247;37.958;23.722;2023-08-24T04:38:05;28.40;39.10
80220;DHT22;70247;37.958;23.722;2023-08-24T04:40:43;28.50;40.30
80220;DHT22;70247;37.958;23.722;2023-08-24T04:43:08;28.50;39.00
80220;DHT22;70247;37.958;23.722;2023-08-24T04:45:34;28.50;39.40
80220;DHT22;70247;37.958;23.722;2023-08-24T04:47:59;28.60;39.60
80220;DHT22;70247;37.958;23.722;2023-08-24T04:50:26;28.60;39.70
80220;DHT22;70247;37.958;23.722;2023-08-24T04:52:52;28.60;40.50
80220;DHT22;70247;37.958;23.722;2023-08-24T04:55:17;28.60;40.00
80220;DHT22;70247;37.958;23.722;2023-08-24T04:57:43;28.60;40.00
80220;DHT22;70247;37.958;23.722;2023-08-24T05:00:08;28.50;39.70
80220;DHT22;70247;37.958;23.722;2023-08-24T05:02:37;28.50;40.10
80220;DHT22;70247;37.958;23.722;2023-08-24T05:05:03;28.50;41.00
80220;DHT22;70247;37.958;23.722;2023-08-24T05:07:28;28.50;41.40
80220;DHT22;70247;37.958;23.722;2023-08-24T05:09:54;28.60;39.70
80220;DHT22;70247;37.958;23.722;2023-08-24T05:12:20;28.60;40.00
80220;DHT22;70247;37.958;23.722;2023-08-24T05:14:45;28.60;39.80
80220;DHT22;70247;37.958;23.722;2023-08-24T05:17:11;28.70;39.40
80220;DHT22;70247;37.958;23.722;2023-08-24T05:19:37;28.70;40.40
80220;DHT22;70247;37.958;23.722;2023-08-24T05:22:02;28.80;39.30
80220;DHT22;70247;37.958;23.722;2023-08-24T05:24:28;28.80;40.00
80220;DHT22;70247;37.958;23.722;2023-08-24T05:26:54;28.90;41.50
80220;DHT22;70247;37.958;23.722;2023-08-24T05:29:19;28.90;42.40
80220;DHT22;70247;37.958;23.722;2023-08-24T05:31:45;29.00;40.40
80220;DHT22;70247;37.958;23.722;2023-08-24T05:34:10;29.00;40.00
80220;DHT22;70247;37.958;23.722;2023-08-24T05:36:36;29.10;41.60
80220;DHT22;70247;37.958;23.722;2023-08-24T05:39:01;29.10;40.00
80220;DHT22;70247;37.958;23.722;2023-08-24T05:41:27;29.10;39.80
80220;DHT22;70247;37.958;23.722;2023-08-24T05:43:53;29.20;40.10
80220;DHT22;70247;37.958;23.722;2023-08-24T05:46:18;29.20;40.20
80220;DHT22;70247;37.958;23.722;2023-08-24T05:48:44;29.20;39.60
80220;DHT22;70247;37.958;23.722;2023-08-24T05:51:10;29.20;40.20
80220;DHT22;70247;37.958;23.722;2023-08-24T05:53:37;29.30;39.10
80220;DHT22;70247;37.958;23.722;2023-08-24T05:56:03;29.30;38.90
80220;DHT22;70247;37.958;23.722;2023-08-24T05:58:29;29.30;38.00
80220;DHT22;70247;37.958;23.722;2023-08-24T06:00:58;29.30;37.80
80220;DHT22;70247;37.958;23.722;2023-08-24T06:03:24;29.40;38.80
80220;DHT22;70247;37.958;23.722;2023-08-24T06:05:50;29.40;37.70
80220;DHT22;70247;37.958;23.722;2023-08-24T06:08:15;29.50;36.90
80220;DHT22;70247;37.958;23.722;2023-08-24T06:10:41;29.60;37.80
80220;DHT22;70247;37.958;23.722;2023-08-24T06:13:06;29.70;37.50
80220;DHT22;70247;37.958;23.722;2023-08-24T06:15:32;29.70;36.80
80220;DHT22;70247;37.958;23.722;2023-08-24T06:17:57;29.80;38.20
80220;DHT22;70247;37.958;23.722;2023-08-24T06:20:24;29.90;37.60
80220;DHT22;70247;37.958;23.722;2023-08-24T06:22:50;29.90;37.50
80220;DHT22;70247;37.958;23.722;2023-08-24T06:25:16;30.00;37.80
80220;DHT22;70247;37.958;23.722;2023-08-24T06:27:41;30.00;37.40
80220;DHT22;70247;37.958;23.722;2023-08-24T06:30:07;30.10;38.50
80220;DHT22;70247;37.958;23.722;2023-08-24T06:32:33;30.20;36.30
80220;DHT22;70247;37.958;23.722;2023-08-24T06:34:58;30.10;33.60
80220;DHT22;70247;37.958;23.722;2023-08-24T06:37:25;30.10;33.50
80220;DHT22;70247;37.958;23.722;2023-08-24T06:39:50;30.40;32.40
80220;DHT22;70247;37.958;23.722;2023-08-24T06:42:16;30.50;31.40
80220;DHT22;70247;37.958;23.722;2023-08-24T06:44:41;30.50;32.30
80220;DHT22;70247;37.958;23.722;2023-08-24T06:47:07;30.60;32.30
80220;DHT22;70247;37.958;23.722;2023-08-24T06:49:32;30.70;32.70
80220;DHT22;70247;37.958;23.722;2023-08-24T06:51:58;30.90;31.40
80220;DHT22;70247;37.958;23.722;2023-08-24T06:54:24;31.00;31.50
80220;DHT22;70247;37.958;23.722;2023-08-24T06:56:50;31.00;31.90
80220;DHT22;70247;37.958;23.722;2023-08-24T06:59:15;31.00;31.40
80220;DHT22;70247;37.958;23.722;2023-08-24T07:01:41;31.00;31.10
80220;DHT22;70247;37.958;23.722;2023-08-24T07:04:06;31.10;31.90
80220;DHT22;70247;37.958;23.722;2023-08-24T07:06:35;31.20;31.10
80220;DHT22;70247;37.958;23.722;2023-08-24T07:09:01;31.30;30.40
80220;DHT22;70247;37.958;23.722;2023-08-24T07:11:28;31.40;30.00
80220;DHT22;70247;37.958;23.722;2023-08-24T07:13:54;31.50;29.70
80220;DHT22;70247;37.958;23.722;2023-08-24T07:16:20;31.60;30.20
80220;DHT22;70247;37.958;23.722;2023-08-24T07:18:45;31.70;29.90
80220;DHT22;70247;37.958;23.722;2023-08-24T07:21:11;31.70;29.90
80220;DHT22;70247;37.958;23.722;2023-08-24T07:23:36;31.80;29.80
80220;DHT22;70247;37.958;23.722;2023-08-24T07:26:02;31.80;30.00
80220;DHT22;70247;37.958;23.722;2023-08-24T07:28:28;31.90;29.20
80220;DHT22;70247;37.958;23.722;2023-08-24T07:30:53;31.90;29.40
80220;DHT22;70247;37.958;23.722;2023-08-24T07:33:21;31.80;29.60
80220;DHT22;70247;37.958;23.722;2023-08-24T07:35:47;32.00;29.70
80220;DHT22;70247;37.958;23.722;2023-08-24T07:38:12;32.00;30.10
80220;DHT22;70247;37.958;23.722;2023-08-24T07:40:38;31.90;30.30
80220;DHT22;70247;37.958;23.722;2023-08-24T07:43:03;32.00;29.70
80220;DHT22;70247;37.958;23.722;2023-08-24T07:45:29;32.10;30.20
80220;DHT22;70247;37.958;23.722;2023-08-24T07:47:56;32.10;30.50
80220;DHT22;70247;37.958;23.722;2023-08-24T07:50:22;32.20;29.40
80220;DHT22;70247;37.958;23.722;2023-08-24T07:52:48;32.30;29.70
80220;DHT22;70247;37.958;23.722;2023-08-24T07:55:14;32.40;29.50
80220;DHT22;70247;37.958;23.722;2023-08-24T07:57:39;32.40;29.70
80220;DHT22;70247;37.958;23.722;2023-08-24T08:00:05;32.30;29.80
80220;DHT22;70247;37.958;23.722;2023-08-24T08:02:31;32.30;30.50
80220;DHT22;70247;37.958;23.722;2023-08-24T08:04:59;32.30;30.40
80220;DHT22;70247;37.958;23.722;2023-08-24T08:07:25;32.40;30.40
80220;DHT22;70247;37.958;23.722;2023-08-24T08:09:51;32.50;31.40
80220;DHT22;70247;37.958;23.722;2023-08-24T08:12:16;32.50;30.00
80220;DHT22;70247;37.958;23.722;2023-08-24T08:14:42;32.60;30.00
80220;DHT22;70247;37.958;23.722;2023-08-24T08:17:08;32.60;29.60
80220;DHT22;70247;37.958;23.722;2023-08-24T08:19:33;32.70;29.30
80220;DHT22;70247;37.958;23.722;2023-08-24T08:22:01;32.70;29.20
80220;DHT22;70247;37.958;23.722;2023-08-24T08:24:26;32.80;29.60
80220;DHT22;70247;37.958;23.722;2023-08-24T08:26:52;32.80;29.80
80220;DHT22;70247;37.958;23.722;2023-08-24T08:29:18;32.90;29.50
80220;DHT22;70247;37.958;23.722;2023-08-24T08:31:43;33.00;29.80
80220;DHT22;70247;37.958;23.722;2023-08-24T08:34:09;33.00;29.90
80220;DHT22;70247;37.958;23.722;2023-08-24T08:36:34;33.20;29.70
80220;DHT22;70247;37.958;23.722;2023-08-24T08:39:00;33.40;30.40
80220;DHT22;70247;37.958;23.722;2023-08-24T08:41:27;33.40;29.90
80220;DHT22;70247;37.958;23.722;2023-08-24T08:43:55;33.50;30.50
80220;DHT22;70247;37.958;23.722;2023-08-24T08:46:21;33.40;30.30
80220;DHT22;70247;37.958;23.722;2023-08-24T08:48:46;33.60;28.60
80220;DHT22;70247;37.958;23.722;2023-08-24T08:51:14;33.70;28.90
80220;DHT22;70247;37.958;23.722;2023-08-24T08:53:41;33.80;28.50
80220;DHT22;70247;37.958;23.722;2023-08-24T08:56:06;33.80;28.30
80220;DHT22;70247;37.958;23.722;2023-08-24T08:58:33;33.80;28.80
80220;DHT22;70247;37.958;23.722;2023-08-24T09:00:59;33.80;28.40
80220;DHT22;70247;37.958;23.722;2023-08-24T09:03:29;33.80;28.70
80220;DHT22;70247;37.958;23.722;2023-08-24T09:05:55;34.20;28.20
80220;DHT22;70247;37.958;23.722;2023-08-24T09:08:21;34.20;27.90
80220;DHT22;70247;37.958;23.722;2023-08-24T09:10:47;34.20;29.00
80220;DHT22;70247;37.958;23.722;2023-08-24T09:13:13;34.30;28.60
80220;DHT22;70247;37.958;23.722;2023-08-24T09:15:39;34.60;28.20
80220;DHT22;70247;37.958;23.722;2023-08-24T09:18:05;34.90;29.00
80220;DHT22;70247;37.958;23.722;2023-08-24T09:20:30;35.50;28.20
80220;DHT22;70247;37.958;23.722;2023-08-24T09:22:56;36.40;27.20
80220;DHT22;70247;37.958;23.722;2023-08-24T09:25:25;37.50;26.10
80220;DHT22;70247;37.958;23.722;2023-08-24T09:27:57;38.80;24.80
80220;DHT22;70247;37.958;23.722;2023-08-24T09:30:24;40.20;23.30
80220;DHT22;70247;37.958;23.722;2023-08-24T09:32:53;41.40;23.10
80220;DHT22;70247;37.958;23.722;2023-08-24T09:35:19;42.80;22.40
80220;DHT22;70247;37.958;23.722;2023-08-24T09:37:46;43.90;21.80
80220;DHT22;70247;37.958;23.722;2023-08-24T09:40:14;43.60;20.80
80220;DHT22;70247;37.958;23.722;2023-08-24T09:42:41;44.00;21.60
80220;DHT22;70247;37.958;23.722;2023-08-24T09:45:13;44.20;21.20
80220;DHT22;70247;37.958;23.722;2023-08-24T09:47:39;44.80;20.00
80220;DHT22;70247;37.958;23.722;2023-08-24T09:50:05;45.60;19.50
80220;DHT22;70247;37.958;23.722;2023-08-24T09:52:32;46.40;19.50
80220;DHT22;70247;37.958;23.722;2023-08-24T09:54:59;46.40;19.60
80220;DHT22;70247;37.958;23.722;2023-08-24T09:57:30;47.20;19.20
80220;DHT22;70247;37.958;23.722;2023-08-24T09:59:56;47.80;18.40
80220;DHT22;70247;37.958;23.722;2023-08-24T10:02:22;47.90;18.90
80220;DHT22;70247;37.958;23.722;2023-08-24T10:04:48;47.60;18.60
80220;DHT22;70247;37.958;23.722;2023-08-24T10:07:15;47.50;18.80
80220;DHT22;70247;37.958;23.722;2023-08-24T10:09:46;47.60;19.20
80220;DHT22;70247;37.958;23.722;2023-08-24T10:12:13;48.00;18.50
80220;DHT22;70247;37.958;23.722;2023-08-24T10:17:05;48.00;18.90
80220;DHT22;70247;37.958;23.722;2023-08-24T10:19:31;48.60;18.00
80220;DHT22;70247;37.958;23.722;2023-08-24T10:21:57;49.00;18.30
80220;DHT22;70247;37.958;23.722;2023-08-24T10:24:25;48.60;17.50
80220;DHT22;70247;37.958;23.722;2023-08-24T10:26:51;48.50;17.70
80220;DHT22;70247;37.958;23.722;2023-08-24T10:29:18;48.40;18.30
80220;DHT22;70247;37.958;23.722;2023-08-24T10:31:43;48.20;17.70
80220;DHT22;70247;37.958;23.722;2023-08-24T10:34:09;48.00;18.50
80220;DHT22;70247;37.958;23.722;2023-08-24T10:36:38;47.60;18.20
80220;DHT22;70247;37.958;23.722;2023-08-24T10:39:04;46.90;18.10
80220;DHT22;70247;37.958;23.722;2023-08-24T10:41:45;45.80;19.20
80220;DHT22;70247;37.958;23.722;2023-08-24T10:44:13;45.10;19.30
80220;DHT22;70247;37.958;23.722;2023-08-24T10:46:44;45.50;19.50
80220;DHT22;70247;37.958;23.722;2023-08-24T10:49:30;45.70;18.90
80220;DHT22;70247;37.958;23.722;2023-08-24T10:51:55;46.30;19.40
80220;DHT22;70247;37.958;23.722;2023-08-24T10:54:29;46.00;18.60
80220;DHT22;70247;37.958;23.722;2023-08-24T10:56:55;45.50;19.40
80220;DHT22;70247;37.958;23.722;2023-08-24T10:59:24;45.10;19.80
80220;DHT22;70247;37.958;23.722;2023-08-24T11:04:18;44.20;20.30
80220;DHT22;70247;37.958;23.722;2023-08-24T11:07:01;44.20;20.30
80220;DHT22;70247;37.958;23.722;2023-08-24T11:09:46;44.20;20.30
80220;DHT22;70247;37.958;23.722;2023-08-24T11:12:13;43.70;20.30
80220;DHT22;70247;37.958;23.722;2023-08-24T11:14:49;42.90;20.20
80220;DHT22;70247;37.958;23.722;2023-08-24T11:17:17;42.40;21.10
80220;DHT22;70247;37.958;23.722;2023-08-24T11:19:49;41.30;21.40
80220;DHT22;70247;37.958;23.722;2023-08-24T11:22:16;40.10;21.50
80220;DHT22;70247;37.958;23.722;2023-08-24T11:24:42;39.60;22.10
80220;DHT22;70247;37.958;23.722;2023-08-24T11:27:08;39.50;22.90
80220;DHT22;70247;37.958;23.722;2023-08-24T11:29:34;39.10;22.50
80220;DHT22;70247;37.958;23.722;2023-08-24T11:32:00;38.90;22.40
80220;DHT22;70247;37.958;23.722;2023-08-24T11:34:25;38.70;23.10
80220;DHT22;70247;37.958;23.722;2023-08-24T11:36:51;38.40;22.40
80220;DHT22;70247;37.958;23.722;2023-08-24T11:39:17;37.80;23.30
80220;DHT22;70247;37.958;23.722;2023-08-24T11:42:00;37.70;23.80
80220;DHT22;70247;37.958;23.722;2023-08-24T11:44:27;37.20;24.10
80220;DHT22;70247;37.958;23.722;2023-08-24T11:46:52;37.40;23.60
80220;DHT22;70247;37.958;23.722;2023-08-24T11:49:18;37.80;23.50
80220;DHT22;70247;37.958;23.722;2023-08-24T11:51:44;37.80;23.30
80220;DHT22;70247;37.958;23.722;2023-08-24T11:54:09;37.70;22.70
80220;DHT22;70247;37.958;23.722;2023-08-24T11:56:41;37.70;23.30
80220;DHT22;70247;37.958;23.722;2023-08-24T11:59:10;37.50;23.70
80220;DHT22;70247;37.958;23.722;2023-08-24T12:01:36;37.60;23.20
80220;DHT22;70247;37.958;23.722;2023-08-24T12:04:01;37.70;23.70
80220;DHT22;70247;37.958;23.722;2023-08-24T12:06:27;37.20;24.00
80220;DHT22;70247;37.958;23.722;2023-08-24T12:08:53;37.20;23.90
80220;DHT22;70247;37.958;23.722;2023-08-24T12:11:21;37.40;23.90
80220;DHT22;70247;37.958;23.722;2023-08-24T12:13:51;37.50;23.10
80220;DHT22;70247;37.958;23.722;2023-08-24T12:16:17;37.10;24.40
80220;DHT22;70247;37.958;23.722;2023-08-24T12:18:46;37.00;25.20
80220;DHT22;70247;37.958;23.722;2023-08-24T12:21:12;36.90;24.60
80220;DHT22;70247;37.958;23.722;2023-08-24T12:23:38;37.10;25.30
80220;DHT22;70247;37.958;23.722;2023-08-24T12:26:04;37.00;24.80
80220;DHT22;70247;37.958;23.722;2023-08-24T12:28:33;36.90;24.90
80220;DHT22;70247;37.958;23.722;2023-08-24T12:30:58;36.90;24.90
80220;DHT22;70247;37.958;23.722;2023-08-24T12:33:29;36.90;25.40
80220;DHT22;70247;37.958;23.722;2023-08-24T12:35:55;36.80;25.00
80220;DHT22;70247;37.958;23.722;2023-08-24T12:38:21;36.80;24.30
80220;DHT22;70247;37.958;23.722;2023-08-24T12:40:47;36.70;24.20
80220;DHT22;70247;37.958;23.722;2023-08-24T12:43:13;36.50;24.40
80220;DHT22;70247;37.958;23.722;2023-08-24T12:45:39;36.40;25.00
80220;DHT22;70247;37.958;23.722;2023-08-24T12:48:05;36.30;25.10
80220;DHT22;70247;37.958;23.722;2023-08-24T12:50:33;36.10;25.70
80220;DHT22;70247;37.958;23.722;2023-08-24T12:52:58;36.30;25.20
80220;DHT22;70247;37.958;23.722;2023-08-24T12:55:25;36.20;25.20
80220;DHT22;70247;37.958;23.722;2023-08-24T12:57:51;36.40;24.70
80220;DHT22;70247;37.958;23.722;2023-08-24T13:00:18;36.40;25.70
80220;DHT22;70247;37.958;23.722;2023-08-24T13:02:44;36.10;25.10
80220;DHT22;70247;37.958;23.722;2023-08-24T13:05:11;36.00;25.10
80220;DHT22;70247;37.958;23.722;2023-08-24T13:07:38;36.00;24.60
80220;DHT22;70247;37.958;23.722;2023-08-24T13:10:04;36.10;25.20
80220;DHT22;70247;37.958;23.722;2023-08-24T13:12:30;35.90;25.20
80220;DHT22;70247;37.958;23.722;2023-08-24T13:14:55;35.90;25.10
80220;DHT22;70247;37.958;23.722;2023-08-24T13:17:21;35.90;26.00
80220;DHT22;70247;37.958;23.722;2023-08-24T13:19:47;36.00;24.40
80220;DHT22;70247;37.958;23.722;2023-08-24T13:22:14;36.10;24.70
80220;DHT22;70247;37.958;23.722;2023-08-24T13:24:40;35.80;25.00
80220;DHT22;70247;37.958;23.722;2023-08-24T13:27:06;35.70;25.50
80220;DHT22;70247;37.958;23.722;2023-08-24T13:29:36;35.70;25.10
80220;DHT22;70247;37.958;23.722;2023-08-24T13:32:01;35.80;24.40
80220;DHT22;70247;37.958;23.722;2023-08-24T13:34:27;35.70;24.80
80220;DHT22;70247;37.958;23.722;2023-08-24T13:36:53;35.70;25.10
80220;DHT22;70247;37.958;23.722;2023-08-24T13:39:18;35.70;24.80
80220;DHT22;70247;37.958;23.722;2023-08-24T13:41:44;35.30;25.20
80220;DHT22;70247;37.958;23.722;2023-08-24T13:44:10;35.30;25.20
80220;DHT22;70247;37.958;23.722;2023-08-24T13:46:35;35.30;25.00
80220;DHT22;70247;37.958;23.722;2023-08-24T13:49:01;35.20;25.20
80220;DHT22;70247;37.958;23.722;2023-08-24T13:51:27;35.20;26.30
80220;DHT22;70247;37.958;23.722;2023-08-24T13:53:53;35.00;25.40
80220;DHT22;70247;37.958;23.722;2023-08-24T13:56:19;35.10;26.20
80220;DHT22;70247;37.958;23.722;2023-08-24T13:58:45;35.20;25.50
80220;DHT22;70247;37.958;23.722;2023-08-24T14:01:12;35.30;25.80
80220;DHT22;70247;37.958;23.722;2023-08-24T14:03:38;35.40;25.90
80220;DHT22;70247;37.958;23.722;2023-08-24T14:06:05;35.40;24.80
80220;DHT22;70247;37.958;23.722;2023-08-24T14:08:30;35.20;25.50
80220;DHT22;70247;37.958;23.722;2023-08-24T14:10:56;35.00;25.30
80220;DHT22;70247;37.958;23.722;2023-08-24T14:13:22;35.10;25.40
80220;DHT22;70247;37.958;23.722;2023-08-24T14:15:49;35.00;26.00
80220;DHT22;70247;37.958;23.722;2023-08-24T14:18:15;35.00;25.30
80220;DHT22;70247;37.958;23.722;2023-08-24T14:20:42;35.20;25.60
80220;DHT22;70247;37.958;23.722;2023-08-24T14:23:08;35.10;25.70
80220;DHT22;70247;37.958;23.722;2023-08-24T14:25:33;34.90;25.90
80220;DHT22;70247;37.958;23.722;2023-08-24T14:27:59;35.00;26.10
80220;DHT22;70247;37.958;23.722;2023-08-24T14:30:25;35.00;26.10
80220;DHT22;70247;37.958;23.722;2023-08-24T14:32:50;35.10;26.80
80220;DHT22;70247;37.958;23.722;2023-08-24T14:35:16;35.20;26.00
80220;DHT22;70247;37.958;23.722;2023-08-24T14:37:41;35.10;25.90
80220;DHT22;70247;37.958;23.722;2023-08-24T14:40:07;35.00;26.10
80220;DHT22;70247;37.958;23.722;2023-08-24T14:42:33;34.90;26.00
80220;DHT22;70247;37.958;23.722;2023-08-24T14:44:58;34.90;25.80
80220;DHT22;70247;37.958;23.722;2023-08-24T14:47:24;34.80;26.70
80220;DHT22;70247;37.958;23.722;2023-08-24T14:49:50;34.70;26.20
80220;DHT22;70247;37.958;23.722;2023-08-24T14:52:15;34.80;26.20
80220;DHT22;70247;37.958;23.722;2023-08-24T14:54:41;34.80;26.40
80220;DHT22;70247;37.958;23.722;2023-08-24T14:57:06;34.80;26.50
80220;DHT22;70247;37.958;23.722;2023-08-24T14:59:32;34.80;26.80
80220;DHT22;70247;37.958;23.722;2023-08-24T15:01:59;34.70;26.10
80220;DHT22;70247;37.958;23.722;2023-08-24T15:04:26;34.80;26.30
80220;DHT22;70247;37.958;23.722;2023-08-24T15:06:52;34.80;26.70
80220;DHT22;70247;37.958;23.722;2023-08-24T15:09:18;34.70;26.50
80220;DHT22;70247;37.958;23.722;2023-08-24T15:11:43;34.80;27.40
80220;DHT22;70247;37.958;23.722;2023-08-24T15:14:09;34.80;27.00
80220;DHT22;70247;37.958;23.722;2023-08-24T15:16:34;34.80;27.20
80220;DHT22;70247;37.958;23.722;2023-08-24T15:19:00;34.70;26.10
80220;DHT22;70247;37.958;23.722;2023-08-24T15:21:26;34.70;26.70